Time;durP1;ratioP1;P1;durP2;ratioP2;P2;SDS_P1;SDS_P2;PMS_P1;PMS_P2;Temp;Humidity;BMP_temperature;BMP_pressure;BME280_temperature;BME280_humidity;BME280_pressure;Samples;Min_cycle;Max_cycle;Signal;HPM_P1;HPM_P2
2024/01/26 00:00:18;;;;;;;20.83;12.70;;;;;;;12.26;64.75;96085.84;6217276;23;20019;-87
2024/01/26 00:02:48;;;;;;;18.75;12.05;;;;;;;12.32;64.35;96077.38;6192402;23;20000;-86
2024/01/26 00:05:13;;;;;;;28.30;14.52;;;;;;;12.40;63.94;96069.53;6192030;23;20011;-87
2024/01/26 00:07:39;;;;;;;23.85;13.77;;;;;;;12.30;64.56;96071.53;6255548;22;20079;-87
2024/01/26 00:10:08;;;;;;;25.98;14.05;;;;;;;12.47;64.11;96070.50;6222640;22;20007;-86
2024/01/26 00:12:35;;;;;;;25.65;13.25;;;;;;;12.17;65.10;96069.44;6222785;22;20012;-87
2024/01/26 00:15:01;;;;;;;26.42;13.90;;;;;;;12.14;65.08;96061.94;6197617;22;20039;-87
2024/01/26 00:19:55;;;;;;;23.02;12.73;;;;;;;11.86;65.96;96056.22;6236482;22;20070;-87
2024/01/26 00:22:23;;;;;;;23.33;13.48;;;;;;;11.84;66.04;96073.84;6167350;23;20008;-87
2024/01/26 00:24:49;;;;;;;21.02;13.05;;;;;;;11.99;65.73;96061.78;6191871;23;20028;-86
2024/01/26 00:27:16;;;;;;;18.15;11.35;;;;;;;11.97;65.79;96066.34;6191857;23;20008;-87
2024/01/26 00:32:09;;;;;;;20.05;11.93;;;;;;;12.21;64.79;96056.88;6245473;22;20027;-87
2024/01/26 00:34:35;;;;;;;17.73;10.65;;;;;;;12.35;64.36;96069.22;6221808;22;20020;-86
2024/01/26 00:37:02;;;;;;;20.60;12.20;;;;;;;12.22;64.49;96059.31;6196801;22;20004;-87
2024/01/26 00:39:27;;;;;;;20.55;12.38;;;;;;;12.13;65.22;96063.72;6197182;22;20082;-86
2024/01/26 00:41:53;;;;;;;16.27;10.98;;;;;;;12.16;64.82;96074.81;6221909;22;20087;-87
2024/01/26 00:44:20;;;;;;;16.40;10.82;;;;;;;12.50;63.83;96077.97;6197215;22;20067;-87
2024/01/26 00:46:45;;;;;;;17.98;11.68;;;;;;;12.42;63.96;96080.63;6221929;22;20026;-86
2024/01/26 00:49:13;;;;;;;14.93;9.82;;;;;;;12.23;64.53;96078.38;6221954;22;20100;-87
2024/01/26 00:51:42;;;;;;;17.48;10.70;;;;;;;12.20;64.46;96082.13;6246688;22;20031;-87
2024/01/26 00:54:07;;;;;;;15.07;9.98;;;;;;;12.20;64.54;96071.69;6196607;22;20012;-88
2024/01/26 00:56:33;;;;;;;17.48;11.20;;;;;;;12.22;64.57;96084.56;6221492;22;20066;-87
2024/01/26 00:58:59;;;;;;;14.82;10.18;;;;;;;12.27;64.33;96090.09;6196975;22;20007;-87
2024/01/26 01:01:24;;;;;;;14.75;10.38;;;;;;;12.26;64.19;96085.84;6221528;22;20016;-87
2024/01/26 01:06:26;;;;;;;20.10;11.20;;;;;;;12.34;64.03;96085.84;6220465;22;20012;-87
2024/01/26 01:08:51;;;;;;;14.82;10.70;;;;;;;12.45;63.63;96101.16;6216735;23;20008;-86
2024/01/26 01:11:17;;;;;;;15.60;10.88;;;;;;;12.39;63.85;96101.81;6216446;23;20019;-87
2024/01/26 01:13:43;;;;;;;17.40;11.68;;;;;;;12.11;64.40;96097.00;6191198;23;20023;-87
2024/01/26 01:18:35;;;;;;;15.98;10.98;;;;;;;12.12;64.46;96096.00;6232633;22;20099;-86
2024/01/26 01:21:00;;;;;;;20.50;12.15;;;;;;;12.29;63.99;96109.00;6221928;22;20026;-87
2024/01/26 01:23:26;;;;;;;25.55;13.75;;;;;;;11.92;65.15;96099.94;6221218;22;19996;-87
2024/01/26 01:25:55;;;;;;;18.80;11.52;;;;;;;12.12;64.58;96111.63;6221377;22;20004;-86
2024/01/26 01:33:22;;;;;;;22.80;13.40;;;;;;;12.22;64.33;96113.25;6270506;22;20026;-86
2024/01/26 01:35:48;;;;;;;30.02;14.65;;;;;;;12.18;64.45;96106.75;6195913;22;20020;-86
2024/01/26 01:38:13;;;;;;;45.00;16.73;;;;;;;12.24;64.40;96119.13;6221373;22;20015;-86
2024/01/26 01:40:39;;;;;;;38.30;16.45;;;;;;;12.24;64.12;96127.78;6221043;22;20045;-86
2024/01/26 01:43:14;;;;;;;30.83;15.68;;;;;;;11.96;64.89;96122.09;6221119;22;20011;-86
2024/01/26 01:45:40;;;;;;;19.90;12.38;;;;;;;12.06;64.54;96124.53;6246465;22;20008;-86
2024/01/26 01:48:07;;;;;;;19.13;12.95;;;;;;;12.05;64.67;96138.53;6245606;22;20000;-86
2024/01/26 01:53:02;;;;;;;18.80;12.05;;;;;;;12.22;63.65;96131.50;6272293;22;20102;-86
2024/01/26 01:55:28;;;;;;;20.33;12.98;;;;;;;12.21;63.67;96140.34;6221868;22;20062;-87
2024/01/26 01:57:55;;;;;;;17.17;12.00;;;;;;;12.11;63.71;96143.94;6220696;22;20011;-86
2024/01/26 02:00:20;;;;;;;18.00;11.57;;;;;;;12.26;63.44;96149.28;6220886;22;20014;-86
2024/01/26 02:02:47;;;;;;;17.23;11.68;;;;;;;12.02;64.24;96147.50;6245630;22;20070;-86
2024/01/26 02:07:50;;;;;;;16.95;11.65;;;;;;;12.18;63.00;96132.84;6205297;23;20021;-86
2024/01/26 02:10:16;;;;;;;15.32;11.35;;;;;;;12.18;63.14;96138.84;6160589;23;20016;-86
2024/01/26 02:12:44;;;;;;;14.57;10.45;;;;;;;12.19;62.83;96137.09;6185015;23;20005;-87
2024/01/26 02:15:10;;;;;;;11.25;8.63;;;;;;;12.25;62.02;96137.22;6162838;23;20090;-86
2024/01/26 02:17:39;;;;;;;11.13;8.38;;;;;;;12.10;62.55;96131.84;6187666;23;20005;-87
2024/01/26 02:20:05;;;;;;;10.60;7.70;;;;;;;12.09;61.88;96130.25;6187789;23;20057;-87
2024/01/26 02:22:34;;;;;;;9.00;7.30;;;;;;;12.06;61.21;96125.34;6187618;23;19996;-86
2024/01/26 02:25:00;;;;;;;9.45;7.68;;;;;;;12.26;60.72;96143.25;6187876;23;20001;-86
2024/01/26 02:30:01;;;;;;;9.48;7.60;;;;;;;11.78;61.89;96142.25;6254961;22;20023;-86
2024/01/26 02:32:26;;;;;;;9.02;7.32;;;;;;;11.90;61.08;96146.22;6222855;22;20003;-86
2024/01/26 02:34:51;;;;;;;9.27;7.47;;;;;;;11.54;62.22;96130.84;6222760;22;20007;-86
2024/01/26 02:39:52;;;;;;;7.20;6.13;;;;;;;10.87;63.06;96152.47;6216069;22;20031;-87
2024/01/26 02:42:17;;;;;;;7.88;6.05;;;;;;;10.89;62.89;96131.47;6163160;23;20008;-86
2024/01/26 02:44:43;;;;;;;8.10;5.25;;;;;;;10.96;62.14;96148.91;6187222;23;20007;-86
2024/01/26 02:47:11;;;;;;;6.43;5.60;;;;;;;11.25;61.83;96139.91;6162787;23;20032;-86
2024/01/26 02:49:37;;;;;;;6.38;4.95;;;;;;;11.34;60.73;96133.72;6163356;23;20047;-86
2024/01/26 02:52:02;;;;;;;5.75;4.63;;;;;;;11.27;60.68;96130.16;6165849;23;20012;-87
2024/01/26 02:54:29;;;;;;;5.47;4.35;;;;;;;11.19;60.41;96122.28;6162902;23;20013;-86
2024/01/26 02:56:56;;;;;;;4.95;4.10;;;;;;;11.32;60.04;96125.25;6138206;23;20034;-86
2024/01/26 02:59:22;;;;;;;5.22;3.70;;;;;;;11.12;60.22;96126.53;6138671;23;20013;-86
2024/01/26 03:04:13;;;;;;;4.45;3.70;;;;;;;11.08;60.12;96133.00;6266780;22;20043;-86
2024/01/26 03:06:38;;;;;;;4.78;3.65;;;;;;;11.14;59.69;96125.38;6197448;22;20046;-86
2024/01/26 03:09:04;;;;;;;5.30;3.72;;;;;;;11.10;59.77;96116.28;6223368;22;20018;-85
2024/01/26 03:11:40;;;;;;;4.30;3.17;;;;;;;11.13;60.00;96123.75;6223055;22;20015;-86
2024/01/26 03:14:06;;;;;;;4.68;3.60;;;;;;;11.22;60.00;96119.38;6222953;22;20008;-86
2024/01/26 03:16:39;;;;;;;4.22;3.05;;;;;;;11.20;60.01;96108.31;6247801;22;20007;-86
2024/01/26 03:21:32;;;;;;;4.53;2.60;;;;;;;10.95;61.09;96139.47;6217700;23;20090;-87
2024/01/26 03:26:25;;;;;;;2.97;2.20;;;;;;;11.08;60.31;96114.78;6262796;22;20035;-86
2024/01/26 03:28:51;;;;;;;2.55;2.03;;;;;;;11.13;60.01;96110.72;6222825;22;20019;-86
2024/01/26 03:31:16;;;;;;;2.30;2.10;;;;;;;11.32;60.07;96127.06;6222668;22;20007;-86
2024/01/26 03:33:45;;;;;;;2.03;1.50;;;;;;;11.32;59.01;96125.25;6222327;22;20092;-85
2024/01/26 03:36:12;;;;;;;2.05;1.40;;;;;;;11.19;59.13;96130.09;6247305;22;20065;-85
2024/01/26 03:38:38;;;;;;;1.40;1.30;;;;;;;11.12;58.77;96123.94;6222816;22;20070;-86
2024/01/26 03:41:03;;;;;;;1.38;1.27;;;;;;;10.89;59.73;96129.69;6197584;22;20003;-87
2024/01/26 03:43:29;;;;;;;2.67;1.40;;;;;;;11.03;59.60;96125.69;6201300;23;20027;-86
2024/01/26 03:45:58;;;;;;;1.65;1.40;;;;;;;11.16;58.92;96133.03;6158121;23;20013;-87
2024/01/26 03:48:23;;;;;;;1.50;1.30;;;;;;;11.19;58.53;96124.91;6138190;23;20012;-87
2024/01/26 03:50:49;;;;;;;1.35;1.20;;;;;;;11.05;58.43;96120.31;6162126;23;20035;-86
2024/01/26 03:53:14;;;;;;;1.00;0.90;;;;;;;11.25;58.03;96128.66;6162423;23;20009;-88
2024/01/26 03:55:40;;;;;;;1.45;0.90;;;;;;;11.18;57.98;96115.47;6162179;23;20005;-87
2024/01/26 04:00:32;;;;;;;1.70;0.95;;;;;;;11.20;57.81;96121.34;6256767;22;20042;-87
2024/01/26 04:02:57;;;;;;;1.15;1.00;;;;;;;11.41;57.24;96118.28;6222326;22;20097;-87
2024/01/26 04:05:23;;;;;;;1.00;0.90;;;;;;;11.30;57.18;96113.38;6222746;22;20003;-86
2024/01/26 04:07:48;;;;;;;1.05;0.90;;;;;;;11.10;57.32;96125.84;6197243;22;20012;-86
2024/01/26 04:10:14;;;;;;;1.73;0.90;;;;;;;11.32;57.07;96119.25;6221677;22;20057;-87
2024/01/26 04:12:39;;;;;;;1.65;0.73;;;;;;;11.25;56.60;96121.69;6197229;22;20003;-87
2024/01/26 04:15:05;;;;;;;1.42;0.80;;;;;;;11.32;56.30;96125.25;6222135;22;20014;-86
2024/01/26 04:17:31;;;;;;;0.70;0.63;;;;;;;11.40;55.93;96128.84;6197394;22;20003;-87
2024/01/26 04:19:58;;;;;;;1.48;0.70;;;;;;;11.29;55.79;96124.75;6246814;22;20077;-87
2024/01/26 04:22:24;;;;;;;1.02;0.70;;;;;;;11.29;56.70;96130.81;6247292;22;20000;-87
2024/01/26 04:24:49;;;;;;;2.85;0.80;;;;;;;11.32;55.90;96122.66;6222231;22;20016;-86
2024/01/26 04:27:15;;;;;;;1.58;0.90;;;;;;;11.38;56.80;96120.38;6196857;22;20069;-87
2024/01/26 04:29:40;;;;;;;1.35;0.77;;;;;;;11.32;56.53;96127.84;6222008;22;20037;-87
2024/01/26 04:32:09;;;;;;;1.60;0.70;;;;;;;11.26;56.31;96119.88;6196770;22;20091;-87
2024/01/26 04:34:37;;;;;;;0.80;0.60;;;;;;;11.29;56.31;96117.78;6197464;22;20027;-86
2024/01/26 04:37:07;;;;;;;2.45;0.70;;;;;;;11.33;56.41;96126.91;6246232;22;20011;-87
2024/01/26 04:39:33;;;;;;;1.38;0.63;;;;;;;11.31;56.90;96126.25;6223501;22;20086;-87
2024/01/26 04:41:59;;;;;;;1.15;0.70;;;;;;;11.38;56.62;96121.19;6222229;22;20031;-86
2024/01/26 04:52:01;;;;;;;1.05;0.80;;;;;;;11.25;56.56;96124.28;6239637;22;20016;-86
2024/01/26 04:54:27;;;;;;;0.77;0.60;;;;;;;11.30;56.43;96122.00;6191979;23;20042;-86
2024/01/26 04:56:53;;;;;;;1.38;0.70;;;;;;;11.34;56.30;96117.28;6216652;23;20000;-86
2024/01/26 04:59:18;;;;;;;1.60;0.60;;;;;;;11.54;55.51;96120.44;6191847;23;20012;-87
2024/01/26 05:01:44;;;;;;;0.75;0.60;;;;;;;11.48;56.04;96103.66;6191941;23;20058;-86
2024/01/26 05:04:09;;;;;;;1.00;0.60;;;;;;;11.45;55.91;96114.38;6191976;23;20012;-87
2024/01/26 05:06:38;;;;;;;1.27;0.60;;;;;;;11.57;54.92;96098.44;6167068;23;20154;-87
2024/01/26 05:09:04;;;;;;;1.20;0.52;;;;;;;11.45;55.36;96114.38;6216777;23;20015;-87
2024/01/26 05:11:29;;;;;;;2.10;0.73;;;;;;;11.37;55.36;96103.16;6191505;23;20012;-86
2024/01/26 05:16:20;;;;;;;1.65;0.75;;;;;;;11.46;55.17;96113.41;6228433;22;20054;-86
2024/01/26 05:18:46;;;;;;;2.15;0.60;;;;;;;11.53;55.02;96113.56;6216288;23;20008;-88
2024/01/26 05:21:13;;;;;;;0.80;0.52;;;;;;;11.59;54.59;96112.13;6221454;22;20059;-87
2024/01/26 05:23:40;;;;;;;0.95;0.60;;;;;;;11.45;54.98;96100.53;6221922;22;19999;-87
2024/01/26 05:26:06;;;;;;;1.90;0.50;;;;;;;11.53;55.43;96105.75;6246629;22;20003;-87
2024/01/26 05:28:32;;;;;;;0.80;0.70;;;;;;;11.71;55.58;96113.44;6221835;22;20015;-87
2024/01/26 05:30:57;;;;;;;2.55;0.75;;;;;;;11.72;55.31;96105.44;6221911;22;20025;-86
2024/01/26 05:33:23;;;;;;;1.05;0.80;;;;;;;11.65;55.58;96104.47;6247096;22;20034;-87
2024/01/26 05:38:23;;;;;;;0.93;0.80;;;;;;;11.41;57.44;96110.47;6241948;22;20028;-85
2024/01/26 05:40:52;;;;;;;3.90;0.82;;;;;;;11.47;57.52;96130.66;6191586;23;20012;-86
2024/01/26 05:43:20;;;;;;;1.40;0.90;;;;;;;11.41;58.24;96136.53;6167039;23;20008;-86
2024/01/26 05:45:46;;;;;;;1.33;0.98;;;;;;;11.39;58.26;96140.28;6168189;23;20090;-86
2024/01/26 05:48:11;;;;;;;1.08;0.70;;;;;;;11.65;57.23;96140.13;6216805;23;20083;-86
2024/01/26 05:50:38;;;;;;;3.55;1.40;;;;;;;11.78;56.21;96124.00;6191570;23;20008;-86
2024/01/26 05:53:07;;;;;;;2.35;1.45;;;;;;;11.77;56.36;96141.44;6192035;23;20042;-86
2024/01/26 05:55:32;;;;;;;1.20;1.02;;;;;;;11.64;56.73;96136.72;6192056;23;20004;-87
2024/01/26 05:57:58;;;;;;;1.30;0.90;;;;;;;11.50;57.30;96151.19;6191653;23;20004;-86
2024/01/26 06:02:49;;;;;;;1.33;1.10;;;;;;;11.19;58.53;96150.94;6267277;22;20019;-86
2024/01/26 06:05:14;;;;;;;1.45;1.00;;;;;;;11.35;57.85;96158.00;6221972;22;20026;-86
2024/01/26 06:07:42;;;;;;;2.58;1.75;;;;;;;11.39;57.37;96163.72;6246341;22;20004;-86
2024/01/26 06:10:11;;;;;;;2.05;1.58;;;;;;;11.42;57.46;96166.78;6221315;22;20024;-86
2024/01/26 06:12:40;;;;;;;1.52;1.00;;;;;;;11.28;57.95;96165.63;6221437;22;20008;-86
2024/01/26 06:15:05;;;;;;;2.03;1.63;;;;;;;11.39;57.40;96168.91;6213873;23;20016;-86
2024/01/26 06:17:31;;;;;;;3.28;1.90;;;;;;;11.09;58.27;96171.91;6166860;23;20058;-86
2024/01/26 06:19:56;;;;;;;1.48;1.17;;;;;;;10.93;59.20;96167.44;6191492;23;20008;-86
2024/01/26 06:22:22;;;;;;;1.67;1.30;;;;;;;10.75;59.69;96177.13;6190825;23;20012;-86
2024/01/26 06:29:50;;;;;;;1.52;1.40;;;;;;;10.82;58.30;96178.13;6264094;22;20016;-87
2024/01/26 06:32:18;;;;;;;2.92;2.00;;;;;;;11.00;58.33;96166.81;6215957;23;20020;-87
2024/01/26 06:34:45;;;;;;;1.88;1.45;;;;;;;11.11;57.73;96175.16;6210076;23;20039;-86
2024/01/26 06:37:11;;;;;;;2.55;1.50;;;;;;;10.82;58.00;96166.91;6220154;22;20069;-87
2024/01/26 06:39:37;;;;;;;2.40;1.52;;;;;;;11.21;56.94;96179.44;6246219;22;20050;-86
2024/01/26 06:42:03;;;;;;;2.15;1.50;;;;;;;11.22;56.69;96181.88;6221079;22;20016;-86
2024/01/26 06:44:28;;;;;;;2.13;1.40;;;;;;;11.26;56.18;96180.59;6196073;22;20019;-85
2024/01/26 06:46:56;;;;;;;4.22;1.60;;;;;;;11.22;56.94;96189.69;6221663;22;20057;-86
2024/01/26 06:51:49;;;;;;;2.30;1.65;;;;;;;11.09;57.50;96166.69;6238165;22;20099;-86
2024/01/26 06:54:15;;;;;;;2.05;1.50;;;;;;;11.27;57.17;96168.38;6191709;23;20008;-87
2024/01/26 06:56:40;;;;;;;2.00;1.30;;;;;;;10.99;58.23;96166.00;6192357;23;20024;-87
2024/01/26 06:59:08;;;;;;;1.85;1.65;;;;;;;11.20;57.73;96175.22;6191348;23;20055;-86
2024/01/26 07:01:34;;;;;;;3.58;1.60;;;;;;;11.18;58.02;96164.94;6218193;23;20011;-86
2024/01/26 07:04:01;;;;;;;2.10;1.70;;;;;;;11.19;57.67;96161.34;6243600;23;20015;-86
2024/01/26 07:06:27;;;;;;;3.00;2.20;;;;;;;11.15;58.04;96163.44;6243292;23;20004;-85
2024/01/26 07:08:52;;;;;;;4.60;4.20;;;;;;;11.32;57.64;96159.13;6193329;23;20015;-86
2024/01/26 07:11:20;;;;;;;30.52;25.23;;;;;;;11.24;58.58;96164.31;6193211;23;20018;-86
2024/01/26 07:13:46;;;;;;;24.92;22.35;;;;;;;11.39;58.35;96172.34;6193300;23;20008;-86
2024/01/26 07:16:16;;;;;;;14.90;13.48;;;;;;;11.41;58.12;96164.38;6192415;23;20016;-86
2024/01/26 07:18:41;;;;;;;11.05;9.85;;;;;;;11.41;57.86;96166.97;6192809;23;20012;-87
2024/01/26 07:21:08;;;;;;;8.18;7.38;;;;;;;11.35;57.88;96156.19;6217892;23;20004;-86
2024/01/26 07:28:44;;;;;;;20.83;19.00;;;;;;;11.49;57.27;96161.78;6267503;22;20050;-86
2024/01/26 07:31:09;;;;;;;18.55;16.92;;;;;;;11.42;57.42;96150.34;6222996;22;20012;-86
2024/01/26 07:33:35;;;;;;;18.08;16.52;;;;;;;11.42;57.36;96147.75;6247727;22;20010;-86
2024/01/26 07:36:05;;;;;;;8.88;8.07;;;;;;;11.37;57.76;96142.22;6197591;22;20091;-86
2024/01/26 07:38:31;;;;;;;9.32;8.57;;;;;;;11.37;58.15;96147.44;6222490;22;20015;-86
2024/01/26 07:48:32;;;;;;;2.90;1.27;;;;;;;11.43;56.88;96131.97;6269456;22;20019;-86
2024/01/26 07:50:57;;;;;;;29.55;16.58;;;;;;;11.50;56.98;96125.13;6197973;22;20064;-86
2024/01/26 07:53:23;;;;;;;9.88;6.68;;;;;;;11.62;56.97;96125.63;6197665;22;20015;-87
2024/01/26 07:55:48;;;;;;;10.48;6.43;;;;;;;11.43;57.33;96112.91;6222307;22;20011;-86
2024/01/26 07:58:14;;;;;;;7.63;3.60;;;;;;;11.81;56.82;96134.94;6197294;22;20102;-87
2024/01/26 08:03:04;;;;;;;4.68;2.60;;;;;;;11.62;58.51;96141.28;6216937;23;20016;-86
2024/01/26 08:05:30;;;;;;;4.28;2.90;;;;;;;11.69;58.34;96128.41;6167478;23;20018;-87
2024/01/26 08:07:55;;;;;;;5.45;2.72;;;;;;;12.11;56.95;96135.28;6167352;23;20014;-86
2024/01/26 08:10:24;;;;;;;4.15;2.50;;;;;;;11.99;57.46;96136.59;6217304;23;20012;-86
2024/01/26 08:12:50;;;;;;;4.90;2.80;;;;;;;12.27;57.71;96132.66;6217437;23;20053;-86
2024/01/26 08:15:16;;;;;;;6.03;4.35;;;;;;;12.74;55.70;96130.25;6192796;23;20012;-86
2024/01/26 08:17:41;;;;;;;6.80;5.70;;;;;;;12.50;56.30;96121.53;6216822;23;20011;-85
2024/01/26 08:20:11;;;;;;;4.60;3.03;;;;;;;12.39;55.97;96127.91;6217177;23;20008;-85
2024/01/26 08:22:39;;;;;;;3.53;3.00;;;;;;;12.64;56.52;96133.06;6192582;23;20008;-86
2024/01/26 08:25:06;;;;;;;3.67;3.00;;;;;;;13.16;57.10;96129.94;6192779;23;20012;-86
2024/01/26 08:35:17;;;;;;;5.30;2.90;;;;;;;13.26;53.30;96124.50;6270083;22;20031;-85
2024/01/26 08:37:43;;;;;;;3.97;2.70;;;;;;;13.05;54.90;96127.69;6222406;22;20008;-85
2024/01/26 08:40:09;;;;;;;9.75;8.85;;;;;;;13.17;54.97;96118.47;6222537;22;20016;-85
2024/01/26 08:42:35;;;;;;;7.65;6.40;;;;;;;13.13;55.62;96137.28;6247478;22;20076;-85
2024/01/26 08:45:02;;;;;;;6.88;5.07;;;;;;;13.03;54.91;96137.50;6222393;22;20007;-86
2024/01/26 08:47:27;;;;;;;6.53;5.85;;;;;;;13.28;54.78;96123.31;6273203;22;20027;-85
2024/01/26 08:49:55;;;;;;;16.67;14.98;;;;;;;13.08;55.73;96117.72;6248036;22;20008;-85
2024/01/26 08:52:20;;;;;;;12.07;10.13;;;;;;;13.17;56.80;96128.94;6223642;22;20061;-86
2024/01/26 08:54:46;;;;;;;13.82;12.43;;;;;;;13.67;55.98;96137.34;6224533;22;20011;-86
2024/01/26 08:57:11;;;;;;;26.23;21.95;;;;;;;14.54;53.20;96123.81;6209010;22;20007;-85
2024/01/26 09:07:13;;;;;;;1.10;0.98;;;;;;;19.01;39.96;96129.00;6290588;22;20026;-86
2024/01/26 09:09:38;;;;;;;1.38;1.08;;;;;;;19.44;42.42;96138.16;6244932;22;20011;-85
2024/01/26 09:12:07;;;;;;;1.23;1.13;;;;;;;20.13;40.71;96126.00;6245865;22;20007;-86
2024/01/26 09:14:35;;;;;;;3.08;1.10;;;;;;;20.28;38.60;96123.84;6242425;22;20039;-86
2024/01/26 09:17:00;;;;;;;1.60;1.05;;;;;;;19.73;40.12;96128.91;6267995;22;20008;-87
2024/01/26 09:22:06;;;;;;;3.97;2.33;;;;;;;19.09;40.03;96126.13;6231049;23;19924;-87
2024/01/26 09:24:34;;;;;;;2.88;1.20;;;;;;;18.71;40.36;96132.09;6177165;23;20009;-86
2024/01/26 09:27:00;;;;;;;2.85;1.30;;;;;;;18.24;42.36;96135.78;6162530;23;20017;-86
2024/01/26 09:29:26;;;;;;;2.38;1.40;;;;;;;18.36;42.72;96134.19;6137357;23;20060;-86
2024/01/26 09:31:54;;;;;;;2.22;1.30;;;;;;;18.19;42.53;96133.78;6162413;23;20008;-86
2024/01/26 09:36:55;;;;;;;2.10;1.20;;;;;;;17.61;43.16;96130.84;6273839;22;20016;-85
2024/01/26 09:39:20;;;;;;;2.63;1.30;;;;;;;17.47;44.52;96143.16;6197249;22;20017;-85
2024/01/26 09:41:50;;;;;;;1.40;1.30;;;;;;;16.87;45.36;96127.97;6222722;22;20007;-85
2024/01/26 09:44:16;;;;;;;2.03;1.40;;;;;;;16.92;46.20;96143.13;6223532;22;20012;-86
2024/01/26 09:46:45;;;;;;;1.77;1.50;;;;;;;16.76;45.88;96137.16;6248331;22;19999;-86
2024/01/26 09:51:38;;;;;;;2.05;1.40;;;;;;;16.35;47.32;96124.78;6271722;22;20023;-86
2024/01/26 09:54:04;;;;;;;1.70;1.60;;;;;;;16.61;47.30;96120.72;6248038;22;20083;-85
2024/01/26 09:56:31;;;;;;;3.42;1.55;;;;;;;16.77;46.55;96125.66;6247474;22;20026;-86
2024/01/26 09:58:56;;;;;;;2.50;1.70;;;;;;;16.86;46.78;96141.28;6247546;22;20078;-86
2024/01/26 10:01:23;;;;;;;2.38;1.40;;;;;;;17.02;47.48;96143.63;6248267;22;20039;-86
2024/01/26 10:06:15;;;;;;;1.90;1.60;;;;;;;17.17;45.69;96131.13;6267067;22;20110;-86
2024/01/26 10:08:42;;;;;;;1.90;1.70;;;;;;;17.30;45.29;96124.28;6221722;22;20046;-86
2024/01/26 10:11:08;;;;;;;4.30;1.52;;;;;;;17.33;46.57;96135.22;6221717;22;20007;-87
2024/01/26 10:13:34;;;;;;;1.80;1.58;;;;;;;17.30;47.05;96132.19;6246467;22;19995;-86
2024/01/26 10:16:07;;;;;;;2.08;1.55;;;;;;;17.02;46.62;96127.00;6221589;22;20011;-86
2024/01/26 10:18:39;;;;;;;2.85;1.60;;;;;;;16.81;47.33;96132.16;6222627;22;20015;-87
2024/01/26 10:21:05;;;;;;;4.65;1.70;;;;;;;16.60;48.51;96126.97;6246733;22;20023;-86
2024/01/26 10:23:30;;;;;;;3.70;1.90;;;;;;;16.57;47.88;96128.16;6246219;22;20078;-86
2024/01/26 10:25:56;;;;;;;3.97;2.30;;;;;;;16.22;49.25;96122.06;6221712;22;20011;-86
2024/01/26 10:30:46;;;;;;;3.45;2.30;;;;;;;16.11;49.61;96128.66;6215741;23;20020;-86
2024/01/26 10:33:12;;;;;;;2.85;2.40;;;;;;;16.06;49.58;96112.66;6191385;23;20075;-86
2024/01/26 10:35:45;;;;;;;3.08;2.58;;;;;;;15.78;50.48;96118.69;6192833;23;20008;-86
2024/01/26 10:38:13;;;;;;;3.00;2.60;;;;;;;15.40;50.86;96124.13;6217908;23;20141;-85
2024/01/26 10:40:43;;;;;;;4.03;3.00;;;;;;;15.53;50.17;96118.19;6218256;23;20000;-86
2024/01/26 10:43:10;;;;;;;4.33;2.90;;;;;;;15.46;50.36;96114.72;6217623;23;20061;-86
2024/01/26 10:45:37;;;;;;;4.55;3.10;;;;;;;15.08;52.33;96108.81;6217756;23;20226;-87
2024/01/26 10:48:05;;;;;;;3.10;2.80;;;;;;;15.04;52.57;96109.19;6218380;23;20011;-87
2024/01/26 10:50:31;;;;;;;4.00;2.92;;;;;;;14.88;54.03;96090.25;6218262;23;20004;-86
2024/01/26 10:52:58;;;;;;;2.70;2.50;;;;;;;15.14;51.73;96090.56;6193111;23;20018;-87
2024/01/26 10:55:28;;;;;;;4.15;2.50;;;;;;;15.05;52.41;96081.19;6218438;23;20008;-87
2024/01/26 10:57:54;;;;;;;3.43;2.67;;;;;;;15.01;53.35;96075.50;6193825;23;20089;-86
2024/01/26 11:00:20;;;;;;;3.55;2.22;;;;;;;15.40;50.63;96074.31;6193888;23;20277;-86
2024/01/26 11:02:46;;;;;;;40.85;20.48;;;;;;;15.58;50.76;96068.63;6193664;23;20058;-86
2024/01/26 11:17:59;;;;;;;3.85;1.73;;;;;;;15.90;49.86;96047.34;6264390;22;20081;-85
2024/01/26 11:20:30;;;;;;;6.65;2.60;;;;;;;15.84;50.94;96051.53;6223167;22;20016;-87
2024/01/26 11:23:14;;;;;;;5.43;3.28;;;;;;;15.70;51.20;96049.78;6248230;22;20042;-86
2024/01/26 11:25:44;;;;;;;3.38;2.38;;;;;;;15.69;51.80;96046.34;6248103;22;20012;-86
2024/01/26 11:28:11;;;;;;;4.60;2.63;;;;;;;15.82;51.22;96045.66;6248111;22;20010;-86
2024/01/26 11:30:43;;;;;;;3.63;2.97;;;;;;;15.61;52.57;96057.78;6249071;22;20095;-87
2024/01/26 11:33:19;;;;;;;6.13;3.10;;;;;;;15.49;53.13;96054.03;6224822;22;20000;-86
2024/01/26 11:35:45;;;;;;;4.88;3.38;;;;;;;15.59;52.38;96045.84;6248850;22;20004;-86
2024/01/26 11:38:11;;;;;;;5.35;3.58;;;;;;;15.30;53.06;96039.72;6221878;22;20031;-87
2024/01/26 11:40:37;;;;;;;4.18;3.55;;;;;;;15.35;53.52;96049.66;6247792;22;20008;-86
2024/01/26 11:48:16;;;;;;;4.68;4.10;;;;;;;15.09;52.99;96044.97;6272449;22;20039;-86
2024/01/26 11:50:43;;;;;;;5.47;3.83;;;;;;;14.91;54.04;96043.56;6247653;22;20078;-85
2024/01/26 11:53:19;;;;;;;5.43;3.45;;;;;;;15.09;53.39;96037.09;6247729;22;20083;-86
2024/01/26 12:00:45;;;;;;;4.60;3.40;;;;;;;14.96;52.93;96022.03;6265808;22;20012;-86
2024/01/26 12:03:14;;;;;;;3.88;3.50;;;;;;;14.80;53.52;96018.66;6247583;22;20011;-85
2024/01/26 12:05:39;;;;;;;5.32;3.45;;;;;;;14.73;53.61;96032.66;6247429;22;20010;-86
2024/01/26 12:08:06;;;;;;;4.15;3.55;;;;;;;14.59;54.69;96032.50;6197537;22;20015;-85
2024/01/26 12:12:59;;;;;;;4.75;3.80;;;;;;;14.66;53.85;96016.88;6273426;22;20035;-86
2024/01/26 12:15:31;;;;;;;5.88;4.53;;;;;;;14.45;54.54;96015.78;6222607;22;20008;-86
2024/01/26 12:18:02;;;;;;;7.65;3.78;;;;;;;14.02;56.03;96018.22;6223767;22;20008;-86
2024/01/26 12:20:28;;;;;;;4.15;3.40;;;;;;;14.27;55.30;96016.13;6222656;22;20007;-86
2024/01/26 12:22:55;;;;;;;3.90;3.42;;;;;;;14.15;55.55;96022.03;6247419;22;19995;-86
2024/01/26 12:25:20;;;;;;;3.92;3.13;;;;;;;14.41;53.26;96019.75;6247337;22;20007;-86
2024/01/26 12:27:46;;;;;;;4.05;3.40;;;;;;;14.25;53.75;96025.16;6247746;22;20014;-87
2024/01/26 12:30:11;;;;;;;4.38;3.05;;;;;;;14.22;54.34;96028.97;6222741;22;20019;-86
2024/01/26 12:32:38;;;;;;;3.80;3.17;;;;;;;14.30;54.33;96011.53;6222555;22;20003;-86
2024/01/26 12:35:07;;;;;;;4.15;3.22;;;;;;;14.39;54.62;96021.75;6247262;22;20008;-86
2024/01/26 12:39:59;;;;;;;3.90;3.05;;;;;;;14.42;55.18;96017.94;6273116;22;20031;-86
2024/01/26 12:42:26;;;;;;;3.33;3.03;;;;;;;14.26;55.93;96017.16;6221868;22;20035;-87
2024/01/26 12:44:52;;;;;;;4.28;3.88;;;;;;;14.37;56.40;96034.19;6196808;22;20042;-86
2024/01/26 12:47:17;;;;;;;6.10;4.25;;;;;;;14.35;56.73;96023.09;6222664;22;20015;-86
2024/01/26 12:49:43;;;;;;;7.35;4.70;;;;;;;14.27;55.88;96023.19;6247007;22;20032;-86
2024/01/26 12:52:15;;;;;;;4.93;4.10;;;;;;;14.07;57.38;96044.66;6247154;22;20079;-86
2024/01/26 12:54:41;;;;;;;4.65;4.00;;;;;;;14.19;57.02;96038.97;6247106;22;20003;-86
2024/01/26 12:57:07;;;;;;;4.75;3.88;;;;;;;14.05;57.76;96045.81;6197425;22;20012;-86
2024/01/26 12:59:32;;;;;;;4.25;3.83;;;;;;;14.02;57.94;96046.19;6221881;22;20008;-86
2024/01/26 13:01:59;;;;;;;5.35;3.92;;;;;;;14.01;57.69;96034.91;6191169;23;20055;-86
2024/01/26 13:04:25;;;;;;;4.00;3.60;;;;;;;13.86;57.88;96028.84;6187035;23;20016;-87
2024/01/26 13:06:53;;;;;;;3.83;3.42;;;;;;;13.96;57.61;96044.28;6186474;23;20032;-86
2024/01/26 13:09:19;;;;;;;4.60;3.90;;;;;;;14.10;56.63;96053.13;6186413;23;20019;-87
2024/01/26 13:11:45;;;;;;;4.53;3.90;;;;;;;13.93;56.77;96057.69;6186919;23;20001;-87
2024/01/26 13:14:11;;;;;;;5.03;4.20;;;;;;;13.86;57.05;96044.53;6186220;23;20083;-86
2024/01/26 13:16:38;;;;;;;6.78;3.38;;;;;;;13.85;57.02;96050.75;6162141;23;20008;-87
2024/01/26 13:19:04;;;;;;;4.88;3.20;;;;;;;13.64;57.22;96046.19;6186738;23;20008;-86
2024/01/26 13:23:55;;;;;;;5.20;3.15;;;;;;;13.66;57.45;96046.81;6258070;22;20026;-87
2024/01/26 13:26:21;;;;;;;4.32;3.00;;;;;;;13.40;58.21;96050.63;6191631;23;20024;-87
2024/01/26 13:28:46;;;;;;;3.65;2.85;;;;;;;13.57;56.99;96047.88;6216878;23;20094;-87
2024/01/26 13:31:12;;;;;;;3.67;2.70;;;;;;;13.83;56.23;96052.72;6221567;22;20069;-87
2024/01/26 13:33:37;;;;;;;4.50;3.10;;;;;;;13.70;56.89;96055.94;6221910;22;20087;-86
2024/01/26 13:36:04;;;;;;;5.18;3.03;;;;;;;13.45;57.06;96050.91;6222000;22;20018;-85